Terminal Aerodrome Forecast
Issued by NWS Binghamton, NY

Home | Current Version | Previous Version | Text Only | Print | Product List | Glossary On
Versions: 1 2 3 4 5 6 7 8 9 10 11 12 13 14 15 16 17
736
FTUS41 KBGM 281736
TAFBGM
TAF
KBGM 281736Z 2818/2918 12015G25KT P6SM BKN040
     FM282300 11010KT P6SM SCT040 BKN090
     FM290700 09010KT P6SM -SHRA OVC025
     FM291000 09012KT P6SM -RA BKN005 OVC015=

USA.gov is the U.S. government's official web portal to all federal, state and local government web resources and services.